Terminal Aerodrome Forecast
Issued by NWS

Home | Current Version | Previous Version | Text Only | Print | Product List | Glossary On
Versions: 1 2 3 4 5 6 7 8 9 10 11 12 13 14 15 16
000
FTUS46 KLOX 052300
TAFOXR
TAF
KOXR 052331Z 0600/0624 28009KT P6SM SKC
     FM060400 VRB03KT P6SM SKC
     FM061000 06007KT P6SM SKC
     FM061600 07014G20KT P6SM SKC
     FM062100 30013KT P6SM SKC=

USA.gov is the U.S. government's official web portal to all federal, state and local government web resources and services.